sensor_id;sensor_type;location;lat;lon;timestamp;pressure;altitude;pressure_sealevel;temperature;humidity
7407;BME280;3745;56.964;24.128;2023-04-01T00:00:58;99773.34;;;5.76;100.00
7407;BME280;3745;56.964;24.128;2023-04-01T00:03:25;99691.13;;;5.09;100.00
7407;BME280;3745;56.964;24.128;2023-04-01T00:05:55;99743.59;;;5.48;100.00
7407;BME280;3745;56.964;24.128;2023-04-01T00:08:21;99785.53;;;5.54;100.00
7407;BME280;3745;56.964;24.128;2023-04-01T00:10:47;99781.22;;;5.48;100.00
7407;BME280;3745;56.964;24.128;2023-04-01T00:13:22;99790.34;;;5.43;100.00
7407;BME280;3745;56.964;24.128;2023-04-01T00:15:48;99789.53;;;5.44;100.00
7407;BME280;3745;56.964;24.128;2023-04-01T00:18:14;99788.53;;;5.34;100.00
7407;BME280;3745;56.964;24.128;2023-04-01T00:20:47;99757.53;;;5.31;100.00
7407;BME280;3745;56.964;24.128;2023-04-01T00:23:14;99743.97;;;5.20;100.00
7407;BME280;3745;56.964;24.128;2023-04-01T00:25:40;99791.22;;;5.45;100.00
7407;BME280;3745;56.964;24.128;2023-04-01T00:28:06;99782.94;;;5.49;100.00
7407;BME280;3745;56.964;24.128;2023-04-01T00:30:31;99788.09;;;5.58;100.00
7407;BME280;3745;56.964;24.128;2023-04-01T00:32:57;99789.66;;;5.50;100.00
7407;BME280;3745;56.964;24.128;2023-04-01T00:35:23;99783.63;;;5.40;100.00
7407;BME280;3745;56.964;24.128;2023-04-01T00:37:48;99792.81;;;5.40;100.00
7407;BME280;3745;56.964;24.128;2023-04-01T00:40:28;99785.19;;;5.35;100.00
7407;BME280;3745;56.964;24.128;2023-04-01T00:42:55;99785.97;;;5.33;100.00
7407;BME280;3745;56.964;24.128;2023-04-01T00:45:30;99787.63;;;5.31;100.00
7407;BME280;3745;56.964;24.128;2023-04-01T00:47:59;99784.25;;;5.29;100.00
7407;BME280;3745;56.964;24.128;2023-04-01T00:50:28;99725.03;;;4.90;100.00
7407;BME280;3745;56.964;24.128;2023-04-01T00:52:55;99768.75;;;5.05;100.00
7407;BME280;3745;56.964;24.128;2023-04-01T00:55:23;99792.38;;;5.16;100.00
7407;BME280;3745;56.964;24.128;2023-04-01T00:57:50;99765.47;;;5.09;100.00
7407;BME280;3745;56.964;24.128;2023-04-01T01:00:18;99742.69;;;4.97;100.00
7407;BME280;3745;56.964;24.128;2023-04-01T01:02:45;99780.75;;;5.21;100.00
7407;BME280;3745;56.964;24.128;2023-04-01T01:05:13;99726.75;;;4.91;100.00
7407;BME280;3745;56.964;24.128;2023-04-01T01:24:20;99793.50;;;4.89;100.00
7407;BME280;3745;56.964;24.128;2023-04-01T01:35:08;99781.69;;;4.82;100.00
7407;BME280;3745;56.964;24.128;2023-04-01T01:37:38;99726.09;;;4.58;100.00
7407;BME280;3745;56.964;24.128;2023-04-01T01:40:07;99781.59;;;4.76;100.00
7407;BME280;3745;56.964;24.128;2023-04-01T01:42:37;99688.59;;;4.21;100.00
7407;BME280;3745;56.964;24.128;2023-04-01T01:45:06;99786.72;;;4.82;100.00
7407;BME280;3745;56.964;24.128;2023-04-01T01:47:34;99740.72;;;4.40;100.00
7407;BME280;3745;56.964;24.128;2023-04-01T01:50:01;99798.34;;;4.79;100.00
7407;BME280;3745;56.964;24.128;2023-04-01T01:52:28;99794.97;;;4.78;100.00
7407;BME280;3745;56.964;24.128;2023-04-01T01:54:57;99622.97;;;3.94;100.00
7407;BME280;3745;56.964;24.128;2023-04-01T01:57:29;99777.59;;;4.86;100.00
7407;BME280;3745;56.964;24.128;2023-04-01T02:00:02;99759.59;;;4.63;100.00
7407;BME280;3745;56.964;24.128;2023-04-01T02:02:29;99786.66;;;4.79;100.00
7407;BME280;3745;56.964;24.128;2023-04-01T02:04:57;99740.72;;;4.40;100.00
7407;BME280;3745;56.964;24.128;2023-04-01T02:07:31;99783.00;;;4.65;100.00
7407;BME280;3745;56.964;24.128;2023-04-01T02:09:58;99649.19;;;3.73;100.00
7407;BME280;3745;56.964;24.128;2023-04-01T02:12:24;99768.97;;;4.33;100.00
7407;BME280;3745;56.964;24.128;2023-04-01T02:14:57;99791.91;;;4.53;100.00
7407;BME280;3745;56.964;24.128;2023-04-01T02:17:29;99638.94;;;3.61;100.00
7407;BME280;3745;56.964;24.128;2023-04-01T02:20:35;99794.56;;;4.59;100.00
7407;BME280;3745;56.964;24.128;2023-04-01T02:22:56;99777.50;;;4.41;100.00
7407;BME280;3745;56.964;24.128;2023-04-01T02:25:33;99776.63;;;4.41;100.00
7407;BME280;3745;56.964;24.128;2023-04-01T02:27:59;99807.66;;;4.47;100.00
7407;BME280;3745;56.964;24.128;2023-04-01T02:30:29;99797.59;;;4.44;100.00
7407;BME280;3745;56.964;24.128;2023-04-01T02:32:56;99801.72;;;4.42;100.00
7407;BME280;3745;56.964;24.128;2023-04-01T02:35:25;99709.91;;;4.04;100.00
7407;BME280;3745;56.964;24.128;2023-04-01T02:37:54;99748.81;;;4.27;100.00
7407;BME280;3745;56.964;24.128;2023-04-01T02:40:21;99805.97;;;4.46;100.00
7407;BME280;3745;56.964;24.128;2023-04-01T02:42:47;99758.50;;;4.12;100.00
7407;BME280;3745;56.964;24.128;2023-04-01T02:45:16;99780.47;;;4.25;100.00
7407;BME280;3745;56.964;24.128;2023-04-01T02:47:42;99819.31;;;4.45;100.00
7407;BME280;3745;56.964;24.128;2023-04-01T02:50:08;99635.22;;;3.44;100.00
7407;BME280;3745;56.964;24.128;2023-04-01T02:52:34;99822.84;;;4.53;100.00
7407;BME280;3745;56.964;24.128;2023-04-01T02:54:59;99594.63;;;3.20;100.00
7407;BME280;3745;56.964;24.128;2023-04-01T02:57:25;99817.81;;;4.53;100.00
7407;BME280;3745;56.964;24.128;2023-04-01T02:59:51;99779.59;;;4.23;100.00
7407;BME280;3745;56.964;24.128;2023-04-01T03:02:17;99820.19;;;4.47;100.00
7407;BME280;3745;56.964;24.128;2023-04-01T03:04:42;99820.31;;;4.52;100.00
7407;BME280;3745;56.964;24.128;2023-04-01T03:07:12;99830.94;;;4.43;100.00
7407;BME280;3745;56.964;24.128;2023-04-01T03:09:38;99832.66;;;4.44;100.00
7407;BME280;3745;56.964;24.128;2023-04-01T03:12:04;99830.09;;;4.41;100.00
7407;BME280;3745;56.964;24.128;2023-04-01T03:14:30;99797.78;;;4.16;100.00
7407;BME280;3745;56.964;24.128;2023-04-01T03:16:56;99801.84;;;4.11;100.00
7407;BME280;3745;56.964;24.128;2023-04-01T03:19:21;99837.47;;;4.35;100.00
7407;BME280;3745;56.964;24.128;2023-04-01T03:21:47;99781.63;;;4.02;100.00
7407;BME280;3745;56.964;24.128;2023-04-01T03:24:12;99727.41;;;3.66;100.00
7407;BME280;3745;56.964;24.128;2023-04-01T03:26:38;99760.47;;;3.88;100.00
7407;BME280;3745;56.964;24.128;2023-04-01T03:29:04;99683.53;;;3.43;100.00
7407;BME280;3745;56.964;24.128;2023-04-01T03:31:30;99834.28;;;4.42;100.00
7407;BME280;3745;56.964;24.128;2023-04-01T03:33:55;99838.19;;;4.29;100.00
7407;BME280;3745;56.964;24.128;2023-04-01T03:36:21;99843.19;;;4.29;100.00
7407;BME280;3745;56.964;24.128;2023-04-01T03:38:47;99837.41;;;4.32;100.00
7407;BME280;3745;56.964;24.128;2023-04-01T03:41:13;99784.13;;;4.02;100.00
7407;BME280;3745;56.964;24.128;2023-04-01T03:43:39;99815.38;;;4.19;100.00
7407;BME280;3745;56.964;24.128;2023-04-01T03:46:05;99820.25;;;4.13;100.00
7407;BME280;3745;56.964;24.128;2023-04-01T03:48:31;99850.78;;;4.34;100.00
7407;BME280;3745;56.964;24.128;2023-04-01T03:50:56;99860.19;;;4.43;100.00
7407;BME280;3745;56.964;24.128;2023-04-01T03:53:22;99809.63;;;4.21;100.00
7407;BME280;3745;56.964;24.128;2023-04-01T03:55:48;99634.47;;;3.14;100.00
7407;BME280;3745;56.964;24.128;2023-04-01T03:58:14;99856.47;;;4.27;100.00
7407;BME280;3745;56.964;24.128;2023-04-01T04:00:40;99850.44;;;4.19;100.00
7407;BME280;3745;56.964;24.128;2023-04-01T04:03:06;99860.66;;;4.28;100.00
7407;BME280;3745;56.964;24.128;2023-04-01T04:05:32;99730.31;;;3.47;100.00
7407;BME280;3745;56.964;24.128;2023-04-01T04:07:58;99843.63;;;4.12;100.00
7407;BME280;3745;56.964;24.128;2023-04-01T04:10:24;99714.84;;;3.29;100.00
7407;BME280;3745;56.964;24.128;2023-04-01T04:12:51;99823.88;;;3.90;100.00
7407;BME280;3745;56.964;24.128;2023-04-01T04:15:17;99807.25;;;3.92;100.00
7407;BME280;3745;56.964;24.128;2023-04-01T04:17:44;99799.44;;;3.79;100.00
7407;BME280;3745;56.964;24.128;2023-04-01T04:20:10;99843.78;;;3.85;100.00
7407;BME280;3745;56.964;24.128;2023-04-01T04:22:36;99777.91;;;3.52;100.00
7407;BME280;3745;56.964;24.128;2023-04-01T04:25:02;99871.31;;;4.19;100.00
7407;BME280;3745;56.964;24.128;2023-04-01T04:27:27;99808.28;;;4.00;100.00
7407;BME280;3745;56.964;24.128;2023-04-01T04:29:53;99767.28;;;3.60;100.00
7407;BME280;3745;56.964;24.128;2023-04-01T04:32:19;99875.47;;;4.19;100.00
7407;BME280;3745;56.964;24.128;2023-04-01T04:34:45;99865.88;;;4.01;100.00
7407;BME280;3745;56.964;24.128;2023-04-01T04:37:11;99836.41;;;3.90;100.00
7407;BME280;3745;56.964;24.128;2023-04-01T04:39:36;99879.47;;;4.11;100.00
7407;BME280;3745;56.964;24.128;2023-04-01T04:42:02;99785.47;;;3.53;100.00
7407;BME280;3745;56.964;24.128;2023-04-01T04:44:28;99670.09;;;2.72;100.00
7407;BME280;3745;56.964;24.128;2023-04-01T04:46:53;99761.53;;;3.30;100.00
7407;BME280;3745;56.964;24.128;2023-04-01T04:49:19;99899.69;;;4.20;100.00
7407;BME280;3745;56.964;24.128;2023-04-01T04:51:45;99777.66;;;3.41;100.00
7407;BME280;3745;56.964;24.128;2023-04-01T04:54:10;99897.06;;;4.14;100.00
7407;BME280;3745;56.964;24.128;2023-04-01T04:56:36;99676.13;;;2.81;100.00
7407;BME280;3745;56.964;24.128;2023-04-01T04:59:05;99850.53;;;3.88;100.00
7407;BME280;3745;56.964;24.128;2023-04-01T05:01:34;99896.97;;;4.11;100.00
7407;BME280;3745;56.964;24.128;2023-04-01T05:03:59;99909.06;;;4.27;100.00
7407;BME280;3745;56.964;24.128;2023-04-01T05:06:25;99829.63;;;3.86;100.00
7407;BME280;3745;56.964;24.128;2023-04-01T05:08:55;99856.94;;;4.11;100.00
7407;BME280;3745;56.964;24.128;2023-04-01T05:11:21;99904.19;;;4.33;100.00
7407;BME280;3745;56.964;24.128;2023-04-01T05:13:47;99899.13;;;4.30;100.00
7407;BME280;3745;56.964;24.128;2023-04-01T05:16:15;99901.06;;;4.43;100.00
7407;BME280;3745;56.964;24.128;2023-04-01T05:18:41;99896.69;;;4.33;100.00
7407;BME280;3745;56.964;24.128;2023-04-01T05:21:08;99859.44;;;4.11;100.00
7407;BME280;3745;56.964;24.128;2023-04-01T05:23:34;99870.47;;;4.19;100.00
7407;BME280;3745;56.964;24.128;2023-04-01T05:26:05;99864.59;;;4.17;100.00
7407;BME280;3745;56.964;24.128;2023-04-01T05:28:30;99919.59;;;4.48;100.00
7407;BME280;3745;56.964;24.128;2023-04-01T05:30:58;99895.72;;;4.28;100.00
7407;BME280;3745;56.964;24.128;2023-04-01T05:33:25;99927.97;;;4.50;100.00
7407;BME280;3745;56.964;24.128;2023-04-01T05:35:51;99866.88;;;4.08;100.00
7407;BME280;3745;56.964;24.128;2023-04-01T05:38:17;99735.59;;;3.26;100.00
7407;BME280;3745;56.964;24.128;2023-04-01T05:40:45;99937.84;;;4.44;100.00
7407;BME280;3745;56.964;24.128;2023-04-01T05:43:11;99901.75;;;4.02;100.00
7407;BME280;3745;56.964;24.128;2023-04-01T05:45:37;99854.72;;;3.89;100.00
7407;BME280;3745;56.964;24.128;2023-04-01T05:48:03;99907.22;;;4.20;100.00
7407;BME280;3745;56.964;24.128;2023-04-01T05:50:28;99859.50;;;3.79;100.00
7407;BME280;3745;56.964;24.128;2023-04-01T05:52:54;99933.28;;;4.28;100.00
7407;BME280;3745;56.964;24.128;2023-04-01T05:55:20;99940.72;;;4.25;100.00
7407;BME280;3745;56.964;24.128;2023-04-01T05:57:46;99937.34;;;4.23;100.00
7407;BME280;3745;56.964;24.128;2023-04-01T06:00:14;99934.97;;;4.27;100.00
7407;BME280;3745;56.964;24.128;2023-04-01T06:02:39;99910.44;;;4.16;100.00
7407;BME280;3745;56.964;24.128;2023-04-01T06:05:22;99908.78;;;4.15;100.00
7407;BME280;3745;56.964;24.128;2023-04-01T06:07:48;99950.88;;;4.31;100.00
7407;BME280;3745;56.964;24.128;2023-04-01T06:10:20;99915.44;;;4.16;100.00
7407;BME280;3745;56.964;24.128;2023-04-01T06:12:54;99849.03;;;3.61;100.00
7407;BME280;3745;56.964;24.128;2023-04-01T06:15:53;99857.78;;;3.78;100.00
7407;BME280;3745;56.964;24.128;2023-04-01T06:18:37;99959.59;;;4.45;100.00
7407;BME280;3745;56.964;24.128;2023-04-01T06:24:08;99869.41;;;3.76;100.00
7407;BME280;3745;56.964;24.128;2023-04-01T06:30:00;99962.81;;;4.41;100.00
7407;BME280;3745;56.964;24.128;2023-04-01T06:32:45;99960.38;;;4.43;100.00
7407;BME280;3745;56.964;24.128;2023-04-01T06:46:48;99962.59;;;4.66;100.00
7407;BME280;3745;56.964;24.128;2023-04-01T06:49:36;99973.69;;;4.77;100.00
7407;BME280;3745;56.964;24.128;2023-04-01T06:57:55;99972.25;;;4.85;100.00
7407;BME280;3745;56.964;24.128;2023-04-01T07:00:30;99973.63;;;4.74;100.00
7407;BME280;3745;56.964;24.128;2023-04-01T07:03:18;99968.69;;;4.77;100.00
7407;BME280;3745;56.964;24.128;2023-04-01T07:05:46;99939.91;;;4.60;100.00
7407;BME280;3745;56.964;24.128;2023-04-01T07:08:17;99975.28;;;4.72;100.00
7407;BME280;3745;56.964;24.128;2023-04-01T07:11:06;99875.09;;;4.04;100.00
7407;BME280;3745;56.964;24.128;2023-04-01T07:13:36;99981.69;;;4.61;100.00
7407;BME280;3745;56.964;24.128;2023-04-01T07:19:03;99983.81;;;4.80;100.00
7407;BME280;3745;56.964;24.128;2023-04-01T07:24:14;99989.28;;;5.02;100.00
7407;BME280;3745;56.964;24.128;2023-04-01T07:26:43;99998.56;;;5.04;100.00
7407;BME280;3745;56.964;24.128;2023-04-01T07:29:13;100004.00;;;4.86;100.00
7407;BME280;3745;56.964;24.128;2023-04-01T07:37:03;99878.38;;;4.00;100.00
7407;BME280;3745;56.964;24.128;2023-04-01T07:45:31;99983.59;;;4.71;100.00
7407;BME280;3745;56.964;24.128;2023-04-01T07:48:39;100016.78;;;4.97;100.00
7407;BME280;3745;56.964;24.128;2023-04-01T07:51:17;99972.28;;;4.53;100.00
7407;BME280;3745;56.964;24.128;2023-04-01T07:59:58;100028.97;;;4.83;100.00
7407;BME280;3745;56.964;24.128;2023-04-01T08:05:22;100035.78;;;4.87;100.00
7407;BME280;3745;56.964;24.128;2023-04-01T08:13:59;100015.56;;;4.81;100.00
7407;BME280;3745;56.964;24.128;2023-04-01T08:19:47;100049.47;;;5.02;100.00
7407;BME280;3745;56.964;24.128;2023-04-01T08:23:10;100047.56;;;4.91;100.00
7407;BME280;3745;56.964;24.128;2023-04-01T08:25:29;100045.88;;;4.90;100.00
7407;BME280;3745;56.964;24.128;2023-04-01T08:28:39;100055.81;;;4.87;100.00
7407;BME280;3745;56.964;24.128;2023-04-01T08:31:12;100025.47;;;4.75;100.00
7407;BME280;3745;56.964;24.128;2023-04-01T08:33:42;100011.97;;;4.70;100.00
7407;BME280;3745;56.964;24.128;2023-04-01T08:38:53;100009.84;;;4.87;100.00
7407;BME280;3745;56.964;24.128;2023-04-01T08:41:42;100061.91;;;5.33;100.00
7407;BME280;3745;56.964;24.128;2023-04-01T08:53:15;100019.53;;;5.08;100.00
7407;BME280;3745;56.964;24.128;2023-04-01T09:20:49;100097.34;;;5.48;100.00
7407;BME280;3745;56.964;24.128;2023-04-01T09:37:19;100089.81;;;4.76;100.00
7407;BME280;3745;56.964;24.128;2023-04-01T09:43:02;100095.84;;;4.84;100.00
7407;BME280;3745;56.964;24.128;2023-04-01T09:45:48;100129.91;;;5.11;100.00
7407;BME280;3745;56.964;24.128;2023-04-01T10:17:50;100175.81;;;4.44;100.00
7407;BME280;3745;56.964;24.128;2023-04-01T10:23:18;100172.84;;;4.59;100.00
7407;BME280;3745;56.964;24.128;2023-04-01T10:39:37;100136.16;;;4.00;100.00
7407;BME280;3745;56.964;24.128;2023-04-01T10:45:44;100184.69;;;4.33;100.00
7407;BME280;3745;56.964;24.128;2023-04-01T11:12:15;100220.97;;;4.19;100.00
7407;BME280;3745;56.964;24.128;2023-04-01T11:15:21;100110.22;;;3.41;100.00
7407;BME280;3745;56.964;24.128;2023-04-01T11:23:50;100235.75;;;4.38;100.00
7407;BME280;3745;56.964;24.128;2023-04-01T11:29:24;100233.16;;;4.35;100.00
7407;BME280;3745;56.964;24.128;2023-04-01T11:35:19;100235.22;;;4.48;100.00
7407;BME280;3745;56.964;24.128;2023-04-01T11:38:02;100187.81;;;4.26;100.00
7407;BME280;3745;56.964;24.128;2023-04-01T11:43:37;100105.94;;;3.94;100.00
7407;BME280;3745;56.964;24.128;2023-04-01T11:46:10;100229.41;;;4.80;100.00
7407;BME280;3745;56.964;24.128;2023-04-01T11:49:00;100218.81;;;4.59;100.00
7407;BME280;3745;56.964;24.128;2023-04-01T11:57:43;100229.25;;;4.74;100.00
7407;BME280;3745;56.964;24.128;2023-04-01T12:09:30;100234.44;;;4.80;100.00
7407;BME280;3745;56.964;24.128;2023-04-01T12:15:21;100234.91;;;4.99;100.00
7407;BME280;3745;56.964;24.128;2023-04-01T12:17:56;100043.81;;;4.09;100.00
7407;BME280;3745;56.964;24.128;2023-04-01T12:23:29;100097.38;;;4.47;100.00
7407;BME280;3745;56.964;24.128;2023-04-01T12:37:33;100270.97;;;4.72;100.00
7407;BME280;3745;56.964;24.128;2023-04-01T12:40:17;100266.31;;;4.84;100.00
7407;BME280;3745;56.964;24.128;2023-04-01T12:45:35;100137.38;;;4.14;100.00
7407;BME280;3745;56.964;24.128;2023-04-01T12:50:42;100275.19;;;5.05;100.00
7407;BME280;3745;56.964;24.128;2023-04-01T12:53:42;100278.06;;;5.17;100.00
7407;BME280;3745;56.964;24.128;2023-04-01T13:01:34;100295.69;;;5.20;100.00
7407;BME280;3745;56.964;24.128;2023-04-01T13:04:35;100294.22;;;5.28;100.00
7407;BME280;3745;56.964;24.128;2023-04-01T13:10:12;100300.88;;;5.26;100.00
7407;BME280;3745;56.964;24.128;2023-04-01T13:18:15;100308.25;;;5.21;100.00
7407;BME280;3745;56.964;24.128;2023-04-01T13:26:07;100292.50;;;5.27;100.00
7407;BME280;3745;56.964;24.128;2023-04-01T13:29:14;100206.31;;;4.31;100.00
7407;BME280;3745;56.964;24.128;2023-04-01T13:34:52;100337.16;;;5.09;100.00
7407;BME280;3745;56.964;24.128;2023-04-01T13:40:36;100252.03;;;4.52;100.00
7407;BME280;3745;56.964;24.128;2023-04-01T13:44:22;100339.13;;;5.19;100.00
7407;BME280;3745;56.964;24.128;2023-04-01T13:47:18;100326.78;;;5.26;100.00
7407;BME280;3745;56.964;24.128;2023-04-01T13:55:14;100350.66;;;5.43;100.00
7407;BME280;3745;56.964;24.128;2023-04-01T13:58:23;100353.38;;;5.51;100.00
7407;BME280;3745;56.964;24.128;2023-04-01T14:21:11;100371.97;;;5.89;100.00
7407;BME280;3745;56.964;24.128;2023-04-01T14:27:20;100368.81;;;5.97;100.00
7407;BME280;3745;56.964;24.128;2023-04-01T14:38:04;100257.69;;;5.06;100.00
7407;BME280;3745;56.964;24.128;2023-04-01T14:51:47;100407.69;;;5.80;100.00
7407;BME280;3745;56.964;24.128;2023-04-01T15:00:00;100245.38;;;4.84;100.00
7407;BME280;3745;56.964;24.128;2023-04-01T15:02:36;100313.97;;;5.16;100.00
7407;BME280;3745;56.964;24.128;2023-04-01T15:18:56;100432.47;;;5.68;100.00
7407;BME280;3745;56.964;24.128;2023-04-01T15:22:05;100436.91;;;5.78;100.00
7407;BME280;3745;56.964;24.128;2023-04-01T15:30:44;100440.19;;;6.06;100.00
7407;BME280;3745;56.964;24.128;2023-04-01T15:36:14;100451.69;;;5.97;100.00
7407;BME280;3745;56.964;24.128;2023-04-01T15:38:58;100459.63;;;5.81;100.00
7407;BME280;3745;56.964;24.128;2023-04-01T15:44:44;100458.34;;;5.36;100.00
7407;BME280;3745;56.964;24.128;2023-04-01T15:47:40;100466.03;;;5.42;100.00
7407;BME280;3745;56.964;24.128;2023-04-01T16:10:05;100515.88;;;4.51;100.00
7407;BME280;3745;56.964;24.128;2023-04-01T16:15:27;100532.28;;;4.43;100.00
7407;BME280;3745;56.964;24.128;2023-04-01T16:18:02;100527.19;;;4.40;100.00
7407;BME280;3745;56.964;24.128;2023-04-01T16:21:00;100534.59;;;4.37;100.00
7407;BME280;3745;56.964;24.128;2023-04-01T16:26:54;100449.91;;;3.76;100.00
7407;BME280;3745;56.964;24.128;2023-04-01T16:32:26;100560.56;;;4.39;100.00
7407;BME280;3745;56.964;24.128;2023-04-01T16:37:53;100516.47;;;3.95;100.00
7407;BME280;3745;56.964;24.128;2023-04-01T16:43:20;100555.88;;;4.01;100.00
7407;BME280;3745;56.964;24.128;2023-04-01T16:46:12;100592.97;;;4.11;100.00
7407;BME280;3745;56.964;24.128;2023-04-01T16:51:53;100597.44;;;4.19;100.00
7407;BME280;3745;56.964;24.128;2023-04-01T17:02:37;100612.31;;;4.15;100.00
7407;BME280;3745;56.964;24.128;2023-04-01T17:05:11;100531.25;;;3.65;100.00
7407;BME280;3745;56.964;24.128;2023-04-01T17:08:07;100579.56;;;3.87;100.00
7407;BME280;3745;56.964;24.128;2023-04-01T17:10:55;100628.00;;;4.11;100.00
7407;BME280;3745;56.964;24.128;2023-04-01T17:25:16;100646.53;;;4.16;100.00
7407;BME280;3745;56.964;24.128;2023-04-01T17:38:22;100665.91;;;3.98;100.00
7407;BME280;3745;56.964;24.128;2023-04-01T17:41:11;100675.91;;;3.98;100.00
7407;BME280;3745;56.964;24.128;2023-04-01T17:43:55;100665.44;;;3.86;100.00
7407;BME280;3745;56.964;24.128;2023-04-01T17:52:16;100677.19;;;3.87;100.00
7407;BME280;3745;56.964;24.128;2023-04-01T17:58:02;100682.75;;;4.02;100.00
7407;BME280;3745;56.964;24.128;2023-04-01T18:01:21;100668.38;;;3.75;100.00
7407;BME280;3745;56.964;24.128;2023-04-01T18:15:16;100707.94;;;3.84;100.00
7407;BME280;3745;56.964;24.128;2023-04-01T18:20:33;100716.97;;;3.80;100.00
7407;BME280;3745;56.964;24.128;2023-04-01T18:25:39;100718.31;;;3.72;100.00
7407;BME280;3745;56.964;24.128;2023-04-01T18:28:36;100563.19;;;2.87;100.00
7407;BME280;3745;56.964;24.128;2023-04-01T18:31:16;100723.19;;;3.90;100.00
7407;BME280;3745;56.964;24.128;2023-04-01T18:39:38;100732.22;;;3.87;100.00
7407;BME280;3745;56.964;24.128;2023-04-01T18:42:19;100607.34;;;3.07;100.00
7407;BME280;3745;56.964;24.128;2023-04-01T18:47:47;100738.09;;;3.87;100.00
7407;BME280;3745;56.964;24.128;2023-04-01T18:50:21;100745.41;;;3.82;100.00
7407;BME280;3745;56.964;24.128;2023-04-01T18:52:53;100691.72;;;3.54;100.00
7407;BME280;3745;56.964;24.128;2023-04-01T18:55:37;100749.88;;;3.90;100.00
7407;BME280;3745;56.964;24.128;2023-04-01T19:06:41;100764.56;;;3.82;100.00
7407;BME280;3745;56.964;24.128;2023-04-01T19:09:21;100566.81;;;2.53;100.00
7407;BME280;3745;56.964;24.128;2023-04-01T19:12:32;100770.31;;;3.79;100.00
7407;BME280;3745;56.964;24.128;2023-04-01T19:15:10;100778.63;;;3.78;100.00
7407;BME280;3745;56.964;24.128;2023-04-01T19:21:16;100783.13;;;3.66;100.00
7407;BME280;3745;56.964;24.128;2023-04-01T19:26:53;100788.69;;;3.59;100.00
7407;BME280;3745;56.964;24.128;2023-04-01T19:34:57;100796.31;;;3.62;100.00
7407;BME280;3745;56.964;24.128;2023-04-01T19:37:40;100799.22;;;3.52;100.00
7407;BME280;3745;56.964;24.128;2023-04-01T19:42:58;100795.81;;;3.50;100.00
7407;BME280;3745;56.964;24.128;2023-04-01T19:48:15;100802.13;;;3.42;100.00
7407;BME280;3745;56.964;24.128;2023-04-01T19:50:59;100816.38;;;3.43;100.00
7407;BME280;3745;56.964;24.128;2023-04-01T19:56:43;100822.41;;;3.48;100.00
7407;BME280;3745;56.964;24.128;2023-04-01T20:11:57;100824.00;;;3.46;100.00
7407;BME280;3745;56.964;24.128;2023-04-01T20:14:44;100830.72;;;3.47;100.00
7407;BME280;3745;56.964;24.128;2023-04-01T20:17:19;100829.13;;;3.49;100.00
7407;BME280;3745;56.964;24.128;2023-04-01T20:25:30;100759.25;;;3.14;100.00
7407;BME280;3745;56.964;24.128;2023-04-01T20:28:05;100836.09;;;3.56;100.00
7407;BME280;3745;56.964;24.128;2023-04-01T20:36:26;100857.53;;;3.51;100.00
7407;BME280;3745;56.964;24.128;2023-04-01T20:39:34;100855.31;;;3.57;100.00
7407;BME280;3745;56.964;24.128;2023-04-01T20:45:43;100862.69;;;3.54;100.00
7407;BME280;3745;56.964;24.128;2023-04-01T20:48:50;100862.81;;;3.57;100.00
7407;BME280;3745;56.964;24.128;2023-04-01T20:51:30;100720.75;;;2.70;100.00
7407;BME280;3745;56.964;24.128;2023-04-01T20:54:34;100865.44;;;3.60;100.00
7407;BME280;3745;56.964;24.128;2023-04-01T20:57:26;100821.50;;;3.27;100.00
7407;BME280;3745;56.964;24.128;2023-04-01T21:06:35;100879.28;;;3.52;100.00
7407;BME280;3745;56.964;24.128;2023-04-01T21:14:49;100886.28;;;3.59;100.00
7407;BME280;3745;56.964;24.128;2023-04-01T21:20:25;100868.38;;;3.50;100.00
7407;BME280;3745;56.964;24.128;2023-04-01T21:26:06;100891.78;;;3.52;100.00
7407;BME280;3745;56.964;24.128;2023-04-01T21:29:08;100886.13;;;3.56;100.00
7407;BME280;3745;56.964;24.128;2023-04-01T22:11:46;100885.84;;;3.12;100.00
7407;BME280;3745;56.964;24.128;2023-04-01T22:16:58;100732.00;;;2.24;100.00
7407;BME280;3745;56.964;24.128;2023-04-01T22:23:18;100934.50;;;3.38;100.00
7407;BME280;3745;56.964;24.128;2023-04-01T22:31:19;100774.31;;;2.40;100.00
7407;BME280;3745;56.964;24.128;2023-04-01T22:34:24;100795.47;;;2.29;100.00
7407;BME280;3745;56.964;24.128;2023-04-01T22:37:05;100871.75;;;2.77;100.00
7407;BME280;3745;56.964;24.128;2023-04-01T22:40:16;100913.84;;;3.05;100.00
7407;BME280;3745;56.964;24.128;2023-04-01T22:42:56;100777.34;;;2.33;100.00
7407;BME280;3745;56.964;24.128;2023-04-01T22:45:28;100921.13;;;3.18;100.00
7407;BME280;3745;56.964;24.128;2023-04-01T22:55:57;100809.84;;;2.52;100.00
7407;BME280;3745;56.964;24.128;2023-04-01T22:58:36;100955.25;;;3.35;100.00
7407;BME280;3745;56.964;24.128;2023-04-01T23:01:24;100951.94;;;3.36;100.00
7407;BME280;3745;56.964;24.128;2023-04-01T23:03:52;100869.75;;;2.88;100.00
7407;BME280;3745;56.964;24.128;2023-04-01T23:06:26;100828.41;;;2.57;100.00
7407;BME280;3745;56.964;24.128;2023-04-01T23:09:07;100969.72;;;3.42;100.00
7407;BME280;3745;56.964;24.128;2023-04-01T23:11:39;100978.22;;;3.46;100.00
7407;BME280;3745;56.964;24.128;2023-04-01T23:20:15;100987.09;;;3.39;100.00
7407;BME280;3745;56.964;24.128;2023-04-01T23:31:26;100996.91;;;3.54;100.00
7407;BME280;3745;56.964;24.128;2023-04-01T23:34:14;101005.69;;;3.44;100.00
7407;BME280;3745;56.964;24.128;2023-04-01T23:36:47;100915.00;;;2.94;100.00
7407;BME280;3745;56.964;24.128;2023-04-01T23:44:50;100868.50;;;2.60;100.00
7407;BME280;3745;56.964;24.128;2023-04-01T23:47:38;101013.50;;;3.52;100.00
7407;BME280;3745;56.964;24.128;2023-04-01T23:50:13;101010.53;;;3.41;100.00
7407;BME280;3745;56.964;24.128;2023-04-01T23:52:53;100911.19;;;2.83;100.00
7407;BME280;3745;56.964;24.128;2023-04-01T23:55:31;100828.53;;;2.25;100.00
